sensor_id;sensor_type;location;lat;lon;timestamp;pressure;altitude;pressure_sealevel;temperature;humidity
24230;BME280;12362;50.004;8.006;2023-04-27T00:01:11;100840.19;;;4.91;100.00
24230;BME280;12362;50.004;8.006;2023-04-27T00:03:37;100840.19;;;4.91;100.00
24230;BME280;12362;50.004;8.006;2023-04-27T00:06:03;100831.75;;;4.85;100.00
24230;BME280;12362;50.004;8.006;2023-04-27T00:08:28;100831.06;;;4.77;100.00
24230;BME280;12362;50.004;8.006;2023-04-27T00:10:55;100829.44;;;4.71;100.00
24230;BME280;12362;50.004;8.006;2023-04-27T00:13:21;100830.28;;;4.72;100.00
24230;BME280;12362;50.004;8.006;2023-04-27T00:15:46;100827.13;;;4.56;100.00
24230;BME280;12362;50.004;8.006;2023-04-27T00:18:12;100833.63;;;4.29;100.00
24230;BME280;12362;50.004;8.006;2023-04-27T00:20:38;100835.31;;;4.30;100.00
24230;BME280;12362;50.004;8.006;2023-04-27T00:23:04;100832.84;;;4.24;100.00
24230;BME280;12362;50.004;8.006;2023-04-27T00:25:30;100826.66;;;4.35;100.00
24230;BME280;12362;50.004;8.006;2023-04-27T00:27:59;100831.13;;;4.24;100.00
24230;BME280;12362;50.004;8.006;2023-04-27T00:30:24;100827.81;;;4.19;100.00
24230;BME280;12362;50.004;8.006;2023-04-27T00:32:52;100836.97;;;4.34;100.00
24230;BME280;12362;50.004;8.006;2023-04-27T00:35:17;100836.19;;;4.29;100.00
24230;BME280;12362;50.004;8.006;2023-04-27T00:37:44;100829.34;;;4.29;100.00
24230;BME280;12362;50.004;8.006;2023-04-27T00:40:10;100830.22;;;4.28;100.00
24230;BME280;12362;50.004;8.006;2023-04-27T00:42:36;100821.72;;;4.23;100.00
24230;BME280;12362;50.004;8.006;2023-04-27T00:45:02;100826.84;;;4.25;100.00
24230;BME280;12362;50.004;8.006;2023-04-27T00:47:29;100825.22;;;4.18;100.00
24230;BME280;12362;50.004;8.006;2023-04-27T00:49:55;100829.63;;;4.13;100.00
24230;BME280;12362;50.004;8.006;2023-04-27T00:52:24;100844.47;;;3.94;100.00
24230;BME280;12362;50.004;8.006;2023-04-27T00:54:51;100832.66;;;3.80;100.00
24230;BME280;12362;50.004;8.006;2023-04-27T00:57:19;100834.31;;;3.87;100.00
24230;BME280;12362;50.004;8.006;2023-04-27T00:59:45;100834.25;;;3.88;100.00
24230;BME280;12362;50.004;8.006;2023-04-27T01:02:12;100831.13;;;3.70;100.00
24230;BME280;12362;50.004;8.006;2023-04-27T01:04:38;100831.19;;;3.67;100.00
24230;BME280;12362;50.004;8.006;2023-04-27T01:07:04;100836.31;;;3.65;100.00
24230;BME280;12362;50.004;8.006;2023-04-27T01:09:30;100842.31;;;3.64;100.00
24230;BME280;12362;50.004;8.006;2023-04-27T01:11:56;100846.69;;;3.59;100.00
24230;BME280;12362;50.004;8.006;2023-04-27T01:14:22;100844.09;;;3.61;100.00
24230;BME280;12362;50.004;8.006;2023-04-27T01:16:50;100838.81;;;3.70;100.00
24230;BME280;12362;50.004;8.006;2023-04-27T01:19:16;100853.59;;;3.55;100.00
24230;BME280;12362;50.004;8.006;2023-04-27T01:21:41;100853.59;;;3.55;100.00
24230;BME280;12362;50.004;8.006;2023-04-27T01:24:07;100849.28;;;3.57;100.00
24230;BME280;12362;50.004;8.006;2023-04-27T01:26:36;100861.38;;;3.49;100.00
24230;BME280;12362;50.004;8.006;2023-04-27T01:29:02;100859.59;;;3.54;100.00
24230;BME280;12362;50.004;8.006;2023-04-27T01:31:27;100861.25;;;3.58;100.00
24230;BME280;12362;50.004;8.006;2023-04-27T01:33:54;100857.13;;;3.48;100.00
24230;BME280;12362;50.004;8.006;2023-04-27T01:36:19;100863.94;;;3.47;100.00
24230;BME280;12362;50.004;8.006;2023-04-27T01:38:45;100864.91;;;3.40;100.00
24230;BME280;12362;50.004;8.006;2023-04-27T01:41:11;100858.22;;;3.26;100.00
24230;BME280;12362;50.004;8.006;2023-04-27T01:43:37;100847.25;;;3.15;100.00
24230;BME280;12362;50.004;8.006;2023-04-27T01:46:11;100845.56;;;3.12;100.00
24230;BME280;12362;50.004;8.006;2023-04-27T01:48:37;100845.56;;;3.12;100.00
24230;BME280;12362;50.004;8.006;2023-04-27T01:51:04;100844.59;;;3.22;100.00
24230;BME280;12362;50.004;8.006;2023-04-27T01:53:30;100849.91;;;3.09;100.00
24230;BME280;12362;50.004;8.006;2023-04-27T01:55:56;100846.22;;;3.28;100.00
24230;BME280;12362;50.004;8.006;2023-04-27T01:58:21;100858.13;;;3.35;100.00
24230;BME280;12362;50.004;8.006;2023-04-27T02:00:47;100853.94;;;3.29;100.00
24230;BME280;12362;50.004;8.006;2023-04-27T02:03:12;100860.91;;;3.18;100.00
24230;BME280;12362;50.004;8.006;2023-04-27T02:05:38;100868.53;;;3.24;100.00
24230;BME280;12362;50.004;8.006;2023-04-27T02:08:04;100865.91;;;3.27;100.00
24230;BME280;12362;50.004;8.006;2023-04-27T02:10:29;100865.13;;;3.24;100.00
24230;BME280;12362;50.004;8.006;2023-04-27T02:12:55;100871.81;;;3.35;100.00
24230;BME280;12362;50.004;8.006;2023-04-27T02:15:21;100873.59;;;3.29;100.00
24230;BME280;12362;50.004;8.006;2023-04-27T02:17:47;100879.81;;;3.10;100.00
24230;BME280;12362;50.004;8.006;2023-04-27T02:20:13;100878.34;;;2.86;100.00
24230;BME280;12362;50.004;8.006;2023-04-27T02:22:44;100879.19;;;2.85;100.00
24230;BME280;12362;50.004;8.006;2023-04-27T02:25:11;100871.50;;;2.88;100.00
24230;BME280;12362;50.004;8.006;2023-04-27T02:27:37;100881.63;;;2.97;100.00
24230;BME280;12362;50.004;8.006;2023-04-27T02:30:06;100878.13;;;3.06;100.00
24230;BME280;12362;50.004;8.006;2023-04-27T02:32:32;100884.19;;;3.02;100.00
24230;BME280;12362;50.004;8.006;2023-04-27T02:34:58;100884.22;;;2.96;100.00
24230;BME280;12362;50.004;8.006;2023-04-27T02:37:25;100883.34;;;2.98;100.00
24230;BME280;12362;50.004;8.006;2023-04-27T02:39:51;100884.25;;;2.93;100.00
24230;BME280;12362;50.004;8.006;2023-04-27T02:42:16;100870.53;;;3.00;100.00
24230;BME280;12362;50.004;8.006;2023-04-27T02:44:42;100881.63;;;2.97;100.00
24230;BME280;12362;50.004;8.006;2023-04-27T02:47:09;100877.50;;;2.86;100.00
24230;BME280;12362;50.004;8.006;2023-04-27T02:49:34;100875.09;;;2.71;100.00
24230;BME280;12362;50.004;8.006;2023-04-27T02:52:00;100882.00;;;2.62;100.00
24230;BME280;12362;50.004;8.006;2023-04-27T02:54:25;100880.97;;;2.82;100.00
24230;BME280;12362;50.004;8.006;2023-04-27T02:56:51;100883.66;;;2.71;100.00
24230;BME280;12362;50.004;8.006;2023-04-27T02:59:17;100892.88;;;2.84;100.00
24230;BME280;12362;50.004;8.006;2023-04-27T03:01:42;100886.97;;;2.79;100.00
24230;BME280;12362;50.004;8.006;2023-04-27T03:04:08;100880.19;;;2.72;100.00
24230;BME280;12362;50.004;8.006;2023-04-27T03:06:33;100875.00;;;2.78;100.00
24230;BME280;12362;50.004;8.006;2023-04-27T03:08:59;100874.94;;;2.86;100.00
24230;BME280;12362;50.004;8.006;2023-04-27T03:11:26;100878.28;;;2.91;100.00
24230;BME280;12362;50.004;8.006;2023-04-27T03:13:52;100875.75;;;2.89;100.00
24230;BME280;12362;50.004;8.006;2023-04-27T03:16:17;100866.31;;;2.93;100.00
24230;BME280;12362;50.004;8.006;2023-04-27T03:18:45;100878.25;;;2.94;100.00
24230;BME280;12362;50.004;8.006;2023-04-27T03:21:11;100878.28;;;2.95;100.00
24230;BME280;12362;50.004;8.006;2023-04-27T03:23:37;100888.56;;;2.92;100.00
24230;BME280;12362;50.004;8.006;2023-04-27T03:26:10;100881.63;;;3.02;100.00
24230;BME280;12362;50.004;8.006;2023-04-27T03:28:36;100878.25;;;2.97;100.00
24230;BME280;12362;50.004;8.006;2023-04-27T03:31:06;100871.38;;;3.02;100.00
24230;BME280;12362;50.004;8.006;2023-04-27T03:33:32;100872.25;;;2.98;100.00
24230;BME280;12362;50.004;8.006;2023-04-27T03:35:58;100871.38;;;2.97;100.00
24230;BME280;12362;50.004;8.006;2023-04-27T03:38:24;100880.78;;;2.98;100.00
24230;BME280;12362;50.004;8.006;2023-04-27T03:40:51;100879.06;;;2.97;100.00
24230;BME280;12362;50.004;8.006;2023-04-27T03:43:18;100870.47;;;3.03;100.00
24230;BME280;12362;50.004;8.006;2023-04-27T03:45:44;100878.88;;;3.18;100.00
24230;BME280;12362;50.004;8.006;2023-04-27T03:48:09;100871.22;;;3.12;100.00
24230;BME280;12362;50.004;8.006;2023-04-27T03:50:35;100871.09;;;3.24;100.00
24230;BME280;12362;50.004;8.006;2023-04-27T03:53:00;100871.84;;;3.31;100.00
24230;BME280;12362;50.004;8.006;2023-04-27T03:55:26;100876.78;;;3.47;100.00
24230;BME280;12362;50.004;8.006;2023-04-27T03:57:52;100872.47;;;3.49;100.00
24230;BME280;12362;50.004;8.006;2023-04-27T04:00:19;100875.78;;;3.58;100.00
24230;BME280;12362;50.004;8.006;2023-04-27T04:02:45;100873.22;;;3.58;100.00
24230;BME280;12362;50.004;8.006;2023-04-27T04:05:11;100877.47;;;3.61;100.00
24230;BME280;12362;50.004;8.006;2023-04-27T04:07:39;100879.06;;;3.68;100.00
24230;BME280;12362;50.004;8.006;2023-04-27T04:10:09;100863.59;;;3.74;100.00
24230;BME280;12362;50.004;8.006;2023-04-27T04:12:36;100870.47;;;3.72;100.00
24230;BME280;12362;50.004;8.006;2023-04-27T04:15:02;100870.47;;;3.72;100.00
24230;BME280;12362;50.004;8.006;2023-04-27T04:17:28;100868.72;;;3.74;100.00
24230;BME280;12362;50.004;8.006;2023-04-27T04:19:54;100873.75;;;3.81;100.00
24230;BME280;12362;50.004;8.006;2023-04-27T04:22:21;100869.41;;;3.85;100.00
24230;BME280;12362;50.004;8.006;2023-04-27T04:24:47;100874.44;;;3.91;100.00
24230;BME280;12362;50.004;8.006;2023-04-27T04:27:12;100878.72;;;3.92;100.00
24230;BME280;12362;50.004;8.006;2023-04-27T04:29:38;100874.63;;;3.80;100.00
24230;BME280;12362;50.004;8.006;2023-04-27T04:32:04;100874.59;;;3.82;100.00
24230;BME280;12362;50.004;8.006;2023-04-27T04:34:31;100881.28;;;3.92;100.00
24230;BME280;12362;50.004;8.006;2023-04-27T04:36:59;100882.94;;;3.96;100.00
24230;BME280;12362;50.004;8.006;2023-04-27T04:39:24;100890.41;;;4.14;100.00
24230;BME280;12362;50.004;8.006;2023-04-27T04:41:54;100886.72;;;4.30;100.00
24230;BME280;12362;50.004;8.006;2023-04-27T04:44:21;100887.31;;;4.47;100.00
24230;BME280;12362;50.004;8.006;2023-04-27T04:46:46;100888.94;;;4.50;100.00
24230;BME280;12362;50.004;8.006;2023-04-27T04:49:12;100886.16;;;4.64;100.00
24230;BME280;12362;50.004;8.006;2023-04-27T04:51:42;100888.38;;;4.82;100.00
24230;BME280;12362;50.004;8.006;2023-04-27T04:54:09;100881.34;;;4.91;100.00
24230;BME280;12362;50.004;8.006;2023-04-27T04:56:34;100878.38;;;5.14;100.00
24230;BME280;12362;50.004;8.006;2023-04-27T04:59:01;100881.44;;;5.31;100.00
24230;BME280;12362;50.004;8.006;2023-04-27T05:01:27;100888.19;;;5.38;100.00
24230;BME280;12362;50.004;8.006;2023-04-27T05:03:52;100885.25;;;5.54;100.00
24230;BME280;12362;50.004;8.006;2023-04-27T05:06:20;100886.72;;;5.67;100.00
24230;BME280;12362;50.004;8.006;2023-04-27T05:08:46;100889.13;;;5.73;100.00
24230;BME280;12362;50.004;8.006;2023-04-27T05:11:12;100885.34;;;5.90;100.00
24230;BME280;12362;50.004;8.006;2023-04-27T05:13:38;100889.28;;;6.06;100.00
24230;BME280;12362;50.004;8.006;2023-04-27T05:16:05;100895.38;;;6.02;100.00
24230;BME280;12362;50.004;8.006;2023-04-27T05:18:31;100902.13;;;6.09;100.00
24230;BME280;12362;50.004;8.006;2023-04-27T05:20:57;100900.91;;;6.24;100.00
24230;BME280;12362;50.004;8.006;2023-04-27T05:23:22;100899.97;;;6.28;100.00
24230;BME280;12362;50.004;8.006;2023-04-27T05:25:48;100898.16;;;6.31;100.00
24230;BME280;12362;50.004;8.006;2023-04-27T05:28:13;100904.72;;;6.42;100.00
24230;BME280;12362;50.004;8.006;2023-04-27T05:30:39;100903.19;;;6.70;100.00
24230;BME280;12362;50.004;8.006;2023-04-27T05:33:05;100898.66;;;6.78;100.00
24230;BME280;12362;50.004;8.006;2023-04-27T05:35:31;100900.56;;;6.72;100.00
24230;BME280;12362;50.004;8.006;2023-04-27T05:37:56;100903.19;;;6.70;100.00
24230;BME280;12362;50.004;8.006;2023-04-27T05:40:22;100909.22;;;7.03;100.00
24230;BME280;12362;50.004;8.006;2023-04-27T05:42:48;100892.72;;;7.38;100.00
24230;BME280;12362;50.004;8.006;2023-04-27T05:45:14;100888.56;;;7.63;100.00
24230;BME280;12362;50.004;8.006;2023-04-27T05:47:39;100877.25;;;7.95;100.00
24230;BME280;12362;50.004;8.006;2023-04-27T05:50:05;100879.91;;;8.20;100.00
24230;BME280;12362;50.004;8.006;2023-04-27T05:52:31;100872.91;;;8.24;100.00
24230;BME280;12362;50.004;8.006;2023-04-27T05:54:57;100875.59;;;8.47;100.00
24230;BME280;12362;50.004;8.006;2023-04-27T05:57:24;100879.69;;;8.28;100.00
24230;BME280;12362;50.004;8.006;2023-04-27T05:59:50;100876.44;;;8.21;100.00
24230;BME280;12362;50.004;8.006;2023-04-27T06:02:16;100884.34;;;8.17;100.00
24230;BME280;12362;50.004;8.006;2023-04-27T06:04:42;100885.44;;;8.36;100.00
24230;BME280;12362;50.004;8.006;2023-04-27T06:07:09;100886.91;;;8.70;100.00
24230;BME280;12362;50.004;8.006;2023-04-27T06:09:35;100890.50;;;8.91;100.00
24230;BME280;12362;50.004;8.006;2023-04-27T06:12:02;100893.72;;;9.21;100.00
24230;BME280;12362;50.004;8.006;2023-04-27T06:14:31;100886.75;;;9.46;100.00
24230;BME280;12362;50.004;8.006;2023-04-27T06:16:57;100880.88;;;10.10;100.00
24230;BME280;12362;50.004;8.006;2023-04-27T06:19:23;100888.25;;;10.62;100.00
24230;BME280;12362;50.004;8.006;2023-04-27T06:21:50;100883.25;;;10.57;100.00
24230;BME280;12362;50.004;8.006;2023-04-27T06:24:15;100884.13;;;9.92;100.00
24230;BME280;12362;50.004;8.006;2023-04-27T06:26:41;100884.78;;;9.98;100.00
24230;BME280;12362;50.004;8.006;2023-04-27T06:29:07;100885.94;;;10.13;100.00
24230;BME280;12362;50.004;8.006;2023-04-27T06:31:33;100878.59;;;10.24;100.00
24230;BME280;12362;50.004;8.006;2023-04-27T06:33:59;100891.81;;;9.95;100.00
24230;BME280;12362;50.004;8.006;2023-04-27T06:37:15;100888.13;;;10.23;100.00
24230;BME280;12362;50.004;8.006;2023-04-27T06:39:45;100895.88;;;10.02;100.00
24230;BME280;12362;50.004;8.006;2023-04-27T06:42:11;100893.91;;;10.30;100.00
24230;BME280;12362;50.004;8.006;2023-04-27T06:44:37;100893.81;;;10.74;100.00
24230;BME280;12362;50.004;8.006;2023-04-27T06:47:09;100892.34;;;10.47;100.00
24230;BME280;12362;50.004;8.006;2023-04-27T06:49:35;100889.25;;;10.59;100.00
24230;BME280;12362;50.004;8.006;2023-04-27T06:52:01;100889.13;;;10.82;100.00
24230;BME280;12362;50.004;8.006;2023-04-27T06:54:27;100887.31;;;11.24;100.00
24230;BME280;12362;50.004;8.006;2023-04-27T06:56:53;100883.47;;;11.71;100.00
24230;BME280;12362;50.004;8.006;2023-04-27T06:59:19;100880.31;;;11.64;100.00
24230;BME280;12362;50.004;8.006;2023-04-27T07:01:45;100878.53;;;11.83;100.00
24230;BME280;12362;50.004;8.006;2023-04-27T07:04:10;100868.53;;;12.11;100.00
24230;BME280;12362;50.004;8.006;2023-04-27T07:06:36;100875.38;;;11.58;100.00
24230;BME280;12362;50.004;8.006;2023-04-27T07:09:05;100872.63;;;12.16;100.00
24230;BME280;12362;50.004;8.006;2023-04-27T07:11:30;100872.50;;;12.36;100.00
24230;BME280;12362;50.004;8.006;2023-04-27T07:14:28;100871.94;;;12.65;95.80
24230;BME280;12362;50.004;8.006;2023-04-27T07:17:00;100862.81;;;13.40;96.09
24230;BME280;12362;50.004;8.006;2023-04-27T07:19:26;100853.16;;;14.20;82.42
24230;BME280;12362;50.004;8.006;2023-04-27T07:21:52;100857.88;;;14.58;88.62
24230;BME280;12362;50.004;8.006;2023-04-27T07:24:18;100861.53;;;14.25;78.00
24230;BME280;12362;50.004;8.006;2023-04-27T07:26:44;100864.81;;;13.82;71.37
24230;BME280;12362;50.004;8.006;2023-04-27T07:29:10;100864.72;;;13.21;83.58
24230;BME280;12362;50.004;8.006;2023-04-27T07:32:20;100859.75;;;13.79;80.09
24230;BME280;12362;50.004;8.006;2023-04-27T07:34:47;100859.09;;;13.91;67.99
24230;BME280;12362;50.004;8.006;2023-04-27T07:37:13;100851.38;;;14.79;64.70
24230;BME280;12362;50.004;8.006;2023-04-27T07:39:40;100838.47;;;15.20;61.48
24230;BME280;12362;50.004;8.006;2023-04-27T07:42:06;100845.34;;;14.63;61.01
24230;BME280;12362;50.004;8.006;2023-04-27T07:44:33;100835.19;;;15.02;61.87
24230;BME280;12362;50.004;8.006;2023-04-27T07:47:04;100823.31;;;15.80;60.75
24230;BME280;12362;50.004;8.006;2023-04-27T07:49:33;100824.63;;;16.14;57.48
24230;BME280;12362;50.004;8.006;2023-04-27T07:52:03;100824.38;;;15.64;58.10
24230;BME280;12362;50.004;8.006;2023-04-27T07:54:29;100823.91;;;15.98;56.93
24230;BME280;12362;50.004;8.006;2023-04-27T07:56:56;100819.34;;;15.87;56.63
24230;BME280;12362;50.004;8.006;2023-04-27T07:59:22;100815.75;;;16.29;58.18
24230;BME280;12362;50.004;8.006;2023-04-27T08:01:47;100816.19;;;16.74;55.56
24230;BME280;12362;50.004;8.006;2023-04-27T08:04:13;100818.75;;;16.75;53.84
24230;BME280;12362;50.004;8.006;2023-04-27T08:06:40;100821.16;;;17.03;54.19
24230;BME280;12362;50.004;8.006;2023-04-27T08:09:06;100816.97;;;17.26;55.33
24230;BME280;12362;50.004;8.006;2023-04-27T08:11:34;100809.66;;;17.79;52.74
24230;BME280;12362;50.004;8.006;2023-04-27T08:14:02;100809.63;;;17.31;52.60
24230;BME280;12362;50.004;8.006;2023-04-27T08:16:28;100812.13;;;17.57;49.24
24230;BME280;12362;50.004;8.006;2023-04-27T08:18:54;100819.09;;;17.33;49.32
24230;BME280;12362;50.004;8.006;2023-04-27T08:21:22;100804.50;;;17.29;51.89
24230;BME280;12362;50.004;8.006;2023-04-27T08:23:48;100808.16;;;17.39;50.96
24230;BME280;12362;50.004;8.006;2023-04-27T08:26:14;100810.69;;;17.40;50.45
24230;BME280;12362;50.004;8.006;2023-04-27T08:28:40;100801.91;;;17.65;50.54
24230;BME280;12362;50.004;8.006;2023-04-27T08:31:06;100806.94;;;18.04;51.53
24230;BME280;12362;50.004;8.006;2023-04-27T08:33:34;100800.97;;;17.89;50.80
24230;BME280;12362;50.004;8.006;2023-04-27T08:36:00;100800.94;;;18.02;49.22
24230;BME280;12362;50.004;8.006;2023-04-27T08:38:25;100799.41;;;17.63;50.77
24230;BME280;12362;50.004;8.006;2023-04-27T08:40:54;100805.22;;;17.79;50.26
24230;BME280;12362;50.004;8.006;2023-04-27T08:43:25;100806.22;;;17.89;48.21
24230;BME280;12362;50.004;8.006;2023-04-27T08:45:51;100805.09;;;18.74;48.89
24230;BME280;12362;50.004;8.006;2023-04-27T08:48:18;100806.84;;;18.28;51.97
24230;BME280;12362;50.004;8.006;2023-04-27T08:50:49;100813.25;;;18.82;48.10
24230;BME280;12362;50.004;8.006;2023-04-27T08:53:18;100814.75;;;18.63;48.89
24230;BME280;12362;50.004;8.006;2023-04-27T08:55:49;100794.75;;;19.06;47.12
24230;BME280;12362;50.004;8.006;2023-04-27T08:58:15;100796.66;;;19.04;46.67
24230;BME280;12362;50.004;8.006;2023-04-27T09:00:41;100792.94;;;18.95;46.97
24230;BME280;12362;50.004;8.006;2023-04-27T09:03:21;100792.56;;;18.89;47.23
24230;BME280;12362;50.004;8.006;2023-04-27T09:05:47;100782.94;;;19.33;45.93
24230;BME280;12362;50.004;8.006;2023-04-27T09:08:13;100780.84;;;19.04;44.90
24230;BME280;12362;50.004;8.006;2023-04-27T09:10:46;100797.81;;;18.43;47.77
24230;BME280;12362;50.004;8.006;2023-04-27T09:13:12;100800.53;;;18.31;45.95
24230;BME280;12362;50.004;8.006;2023-04-27T09:15:42;100787.63;;;18.39;46.57
24230;BME280;12362;50.004;8.006;2023-04-27T09:18:20;100781.69;;;19.04;44.94
24230;BME280;12362;50.004;8.006;2023-04-27T09:20:53;100789.41;;;18.27;44.82
24230;BME280;12362;50.004;8.006;2023-04-27T09:23:29;100786.50;;;19.10;46.90
24230;BME280;12362;50.004;8.006;2023-04-27T09:26:00;100786.03;;;19.16;46.42
24230;BME280;12362;50.004;8.006;2023-04-27T09:28:27;100779.25;;;19.89;48.58
24230;BME280;12362;50.004;8.006;2023-04-27T09:31:01;100772.41;;;20.60;44.60
24230;BME280;12362;50.004;8.006;2023-04-27T09:33:32;100772.53;;;19.85;46.33
24230;BME280;12362;50.004;8.006;2023-04-27T09:36:02;100774.25;;;19.75;45.37
24230;BME280;12362;50.004;8.006;2023-04-27T09:38:29;100772.88;;;20.13;43.19
24230;BME280;12362;50.004;8.006;2023-04-27T09:40:56;100769.53;;;20.11;42.94
24230;BME280;12362;50.004;8.006;2023-04-27T09:43:22;100772.53;;;19.85;39.60
24230;BME280;12362;50.004;8.006;2023-04-27T09:45:49;100772.50;;;19.53;43.65
24230;BME280;12362;50.004;8.006;2023-04-27T09:48:16;100760.75;;;20.11;44.17
24230;BME280;12362;50.004;8.006;2023-04-27T09:50:44;100754.22;;;21.07;41.28
24230;BME280;12362;50.004;8.006;2023-04-27T09:53:11;100745.97;;;21.60;39.22
24230;BME280;12362;50.004;8.006;2023-04-27T09:58:49;100748.03;;;21.57;38.46
24230;BME280;12362;50.004;8.006;2023-04-27T10:01:29;100735.44;;;21.30;42.19
24230;BME280;12362;50.004;8.006;2023-04-27T10:04:24;100741.53;;;21.70;41.55
24230;BME280;12362;50.004;8.006;2023-04-27T10:07:10;100739.34;;;21.36;42.04
24230;BME280;12362;50.004;8.006;2023-04-27T10:09:46;100743.25;;;21.11;42.90
24230;BME280;12362;50.004;8.006;2023-04-27T10:12:26;100745.03;;;21.71;43.22
24230;BME280;12362;50.004;8.006;2023-04-27T10:14:57;100746.16;;;21.38;38.95
24230;BME280;12362;50.004;8.006;2023-04-27T10:17:32;100747.97;;;21.08;41.72
24230;BME280;12362;50.004;8.006;2023-04-27T10:20:05;100744.88;;;21.03;41.94
24230;BME280;12362;50.004;8.006;2023-04-27T10:22:44;100732.69;;;21.51;40.05
24230;BME280;12362;50.004;8.006;2023-04-27T10:25:20;100729.47;;;22.05;42.11
24230;BME280;12362;50.004;8.006;2023-04-27T10:28:00;100725.59;;;22.38;39.01
24230;BME280;12362;50.004;8.006;2023-04-27T10:30:35;100710.97;;;22.89;39.43
24230;BME280;12362;50.004;8.006;2023-04-27T10:33:06;100734.28;;;20.12;40.04
24230;BME280;12362;50.004;8.006;2023-04-27T10:40:38;100730.81;;;20.52;37.82
24230;BME280;12362;50.004;8.006;2023-04-27T10:45:33;100729.28;;;21.60;40.11
24230;BME280;12362;50.004;8.006;2023-04-27T10:48:00;100729.44;;;21.87;37.41
24230;BME280;12362;50.004;8.006;2023-04-27T10:50:51;100724.44;;;22.31;37.49
24230;BME280;12362;50.004;8.006;2023-04-27T10:53:17;100712.41;;;22.84;41.67
24230;BME280;12362;50.004;8.006;2023-04-27T10:56:12;100712.16;;;23.04;36.73
24230;BME280;12362;50.004;8.006;2023-04-27T10:58:57;100720.00;;;22.31;36.79
24230;BME280;12362;50.004;8.006;2023-04-27T11:05:17;100706.53;;;21.08;37.92
24230;BME280;12362;50.004;8.006;2023-04-27T11:07:43;100715.81;;;20.73;39.72
24230;BME280;12362;50.004;8.006;2023-04-27T11:10:09;100711.69;;;20.80;39.80
24230;BME280;12362;50.004;8.006;2023-04-27T11:12:39;100715.56;;;21.06;41.12
24230;BME280;12362;50.004;8.006;2023-04-27T11:15:05;100698.66;;;21.18;39.76
24230;BME280;12362;50.004;8.006;2023-04-27T11:17:31;100704.09;;;20.25;39.16
24230;BME280;12362;50.004;8.006;2023-04-27T11:19:57;100694.41;;;20.97;40.89
24230;BME280;12362;50.004;8.006;2023-04-27T11:22:22;100694.09;;;21.88;40.53
24230;BME280;12362;50.004;8.006;2023-04-27T11:24:51;100673.34;;;22.86;40.66
24230;BME280;12362;50.004;8.006;2023-04-27T11:27:23;100676.47;;;22.72;37.03
24230;BME280;12362;50.004;8.006;2023-04-27T11:29:49;100688.13;;;22.14;38.89
24230;BME280;12362;50.004;8.006;2023-04-27T11:32:19;100688.25;;;21.94;38.31
24230;BME280;12362;50.004;8.006;2023-04-27T11:34:52;100677.66;;;22.22;38.70
24230;BME280;12362;50.004;8.006;2023-04-27T11:37:25;100680.19;;;22.79;39.02
24230;BME280;12362;50.004;8.006;2023-04-27T11:39:53;100682.25;;;22.20;38.65
24230;BME280;12362;50.004;8.006;2023-04-27T11:42:23;100673.22;;;22.78;41.39
24230;BME280;12362;50.004;8.006;2023-04-27T11:45:13;100680.72;;;21.98;37.76
24230;BME280;12362;50.004;8.006;2023-04-27T11:47:45;100682.94;;;22.03;37.26
24230;BME280;12362;50.004;8.006;2023-04-27T11:50:11;100680.94;;;21.00;42.59
24230;BME280;12362;50.004;8.006;2023-04-27T11:52:40;100667.91;;;22.22;38.92
24230;BME280;12362;50.004;8.006;2023-04-27T11:55:06;100656.53;;;22.68;37.55
24230;BME280;12362;50.004;8.006;2023-04-27T11:57:34;100652.38;;;23.28;38.18
24230;BME280;12362;50.004;8.006;2023-04-27T12:00:04;100663.44;;;22.32;38.47
24230;BME280;12362;50.004;8.006;2023-04-27T12:02:39;100647.72;;;22.77;38.88
24230;BME280;12362;50.004;8.006;2023-04-27T12:05:06;100666.75;;;21.49;37.95
24230;BME280;12362;50.004;8.006;2023-04-27T12:07:32;100672.09;;;21.68;37.64
24230;BME280;12362;50.004;8.006;2023-04-27T12:09:58;100665.97;;;22.34;39.94
24230;BME280;12362;50.004;8.006;2023-04-27T12:12:24;100655.50;;;22.32;37.15
24230;BME280;12362;50.004;8.006;2023-04-27T12:14:52;100651.03;;;21.38;38.56
24230;BME280;12362;50.004;8.006;2023-04-27T12:17:18;100665.78;;;20.72;39.16
24230;BME280;12362;50.004;8.006;2023-04-27T12:19:43;100651.34;;;22.11;39.85
24230;BME280;12362;50.004;8.006;2023-04-27T12:22:09;100642.81;;;22.45;36.31
24230;BME280;12362;50.004;8.006;2023-04-27T12:24:35;100651.91;;;21.77;36.48
24230;BME280;12362;50.004;8.006;2023-04-27T12:27:02;100650.66;;;22.18;36.38
24230;BME280;12362;50.004;8.006;2023-04-27T12:29:28;100637.38;;;22.83;38.04
24230;BME280;12362;50.004;8.006;2023-04-27T12:31:57;100650.88;;;21.40;37.30
24230;BME280;12362;50.004;8.006;2023-04-27T12:34:23;100643.06;;;21.29;39.02
24230;BME280;12362;50.004;8.006;2023-04-27T12:36:48;100638.44;;;21.80;38.62
24230;BME280;12362;50.004;8.006;2023-04-27T12:39:16;100638.13;;;21.54;40.65
24230;BME280;12362;50.004;8.006;2023-04-27T12:44:22;100630.34;;;21.62;38.15
24230;BME280;12362;50.004;8.006;2023-04-27T12:46:48;100632.38;;;21.30;37.95
24230;BME280;12362;50.004;8.006;2023-04-27T12:49:15;100628.56;;;21.82;38.18
24230;BME280;12362;50.004;8.006;2023-04-27T12:51:44;100633.16;;;21.12;38.96
24230;BME280;12362;50.004;8.006;2023-04-27T12:54:12;100627.22;;;21.19;40.17
24230;BME280;12362;50.004;8.006;2023-04-27T12:56:38;100629.22;;;20.97;38.83
24230;BME280;12362;50.004;8.006;2023-04-27T12:59:03;100627.91;;;21.31;43.00
24230;BME280;12362;50.004;8.006;2023-04-27T13:01:30;100600.59;;;22.53;41.34
24230;BME280;12362;50.004;8.006;2023-04-27T13:04:01;100602.25;;;22.81;37.83
24230;BME280;12362;50.004;8.006;2023-04-27T13:06:27;100621.03;;;21.68;38.19
24230;BME280;12362;50.004;8.006;2023-04-27T13:08:53;100607.66;;;21.88;41.30
24230;BME280;12362;50.004;8.006;2023-04-27T13:11:19;100603.75;;;22.66;37.01